Latest Weather Observations for Yeppoon

IDQ60801

Issued at 10:05 am EST Tuesday 25 November 2014 (issued every 30 minutes, with the page automatically refreshed every 10 minutes)

About weather observations | Map of weather stations | Latest weather observations for QLD | Other Formats
Station Details ID: 033294 Name: YEPPOON THE ESPLANADE Lat: -23.14 Lon: 150.75 Height: 5.5 m
Data from the previous 72 hours. | See also: Recent months at Yeppoon
Date/Time
EST
Temp
°C
App
Temp
°C
Dew
Point
Rel
Hum
%
Delta-T
°C
Wind Press
QNH
hPa
Press
MSL
hPa
Rain
since 9 am
mm
Dir
 
Spd
km/h
Gust
km/h
Spd
kts
Gust
kts
25/10:00am 28.4 30.4 21.5 66 4.6 ENE 13 17 7 9 1015.5 1015.5 0.0
25/09:30am 27.8 29.7 21.3 67 4.3 ENE 13 19 7 10 1015.6 1015.6 0.0
25/09:00am 27.8 29.6 21.2 67 4.4 ENE 13 19 7 10 1015.8 1015.8 0.0
25/08:30am 27.5 29.3 21.2 68 4.2 E 13 17 7 9 1015.8 1015.8 0.0
25/08:00am 27.9 30.6 21.4 67 4.3 ENE 9 11 5 6 1016.0 1016.0 0.0
25/07:30am 27.1 29.3 21.2 70 3.9 ENE 11 15 6 8 1015.6 1015.6 0.0
25/07:00am 26.0 28.2 21.2 75 3.2 E 11 15 6 8 1015.3 1015.3 0.0
25/06:30am 26.2 28.0 21.2 74 3.3 NE 13 17 7 9 1014.8 1014.8 0.0
25/06:00am 25.4 27.1 21.0 76 2.9 NE 13 19 7 10 1014.5 1014.5 0.0
25/05:30am 24.7 26.3 20.7 78 2.6 NE 13 19 7 10 1014.3 1014.3 0.0
25/05:00am 24.6 25.4 20.6 78 2.6 NNE 17 20 9 11 1014.1 1014.1 0.0
25/04:30am 24.7 25.9 20.7 78 2.6 NNE 15 20 8 11 1014.0 1014.0 0.0
25/04:00am 24.7 25.6 20.9 79 2.5 NE 17 20 9 11 1013.7 1013.7 0.0
25/03:30am 24.8 25.8 21.0 79 2.5 NE 17 22 9 12 1013.4 1013.4 0.0
25/03:00am 24.9 25.4 20.9 78 2.6 NNE 19 22 10 12 1013.4 1013.4 0.0
25/02:30am 25.0 25.4 20.9 78 2.7 NNE 20 26 11 14 1013.5 1013.5 0.0
25/02:00am 25.1 25.4 21.5 80 2.4 NNE 22 30 12 16 1013.7 1013.7 0.0
25/01:30am 25.2 25.9 21.6 80 2.4 NNE 20 26 11 14 1014.0 1014.0 0.0
25/01:00am 25.3 25.7 21.8 81 2.3 NNE 22 26 12 14 1014.1 1014.1 0.0
25/12:30am 25.3 25.2 21.4 79 2.6 NNE 24 30 13 16 1014.3 1014.3 0.0
25/12:00am 24.7 26.5 21.2 81 2.3 N 13 19 7 10 1014.7 1014.7 0.0
 
Date/Time
EST
Temp
°C
App
Temp
°C
Dew
Point
Rel
Hum
%
Delta-T
°C
Wind Press
QNH
hPa
Press
MSL
hPa
Rain
since 9 am
mm
Dir
 
Spd
km/h
Gust
km/h
Spd
kts
Gust
kts
24/11:30pm 24.9 26.6 20.9 78 2.6 N 13 19 7 10 1015.0 1015.0 0.0
24/11:00pm 25.4 25.7 21.6 79 2.5 NNE 22 30 12 16 1015.2 1015.2 0.0
24/10:30pm 25.6 25.6 21.7 79 2.6 NNE 24 28 13 15 1015.4 1015.4 0.0
24/10:00pm 25.8 26.1 21.6 77 2.8 NNE 22 28 12 15 1015.4 1015.4 0.0
24/09:30pm 25.8 26.5 21.6 77 2.8 NNE 20 24 11 13 1015.2 1015.2 0.0
24/09:00pm 25.7 26.1 21.0 75 3.1 NE 20 26 11 14 1015.0 1015.0 0.0
24/08:30pm 25.7 25.6 20.8 74 3.2 NNE 22 30 12 16 1014.7 1014.7 0.0
24/08:00pm 25.8 25.8 20.9 74 3.2 NE 22 28 12 15 1014.5 1014.5 0.0
24/07:30pm 26.0 25.8 21.3 75 3.1 NNE 24 30 13 16 1014.2 1014.2 0.0
24/07:00pm 26.0 26.0 21.6 76 2.9 NNE 24 30 13 16 1014.0 1014.0 0.0
24/06:30pm 26.0 25.2 20.8 73 3.4 NE 26 30 14 16 1013.8 1013.8 0.0
24/06:00pm 26.1 25.5 21.3 75 3.2 NE 26 32 14 17 1013.5 1013.5 0.0
24/05:30pm 26.3 26.2 21.5 75 3.2 NE 24 30 13 16 1013.3 1013.3 0.0
24/05:00pm 26.8 27.0 22.0 75 3.2 NE 24 30 13 16 1013.0 1013.0 0.0
24/04:30pm 26.7 26.5 21.3 72 3.6 NE 24 30 13 16 1012.9 1012.9 0.0
24/04:00pm 26.7 26.7 20.9 70 3.8 ENE 22 28 12 15 1013.2 1013.2 0.0
24/03:30pm 27.6 27.7 21.1 67 4.3 NE 22 26 12 14 1013.2 1013.2 0.0
24/03:00pm 28.0 28.4 21.7 68 4.2 NE 22 26 12 14 1013.4 1013.4 0.0
24/02:30pm 28.3 29.1 21.7 67 4.4 NE 20 24 11 13 1013.9 1013.9 0.0
24/02:00pm 28.3 28.6 21.6 67 4.5 NE 22 32 12 17 1014.3 1014.3 0.0
24/01:30pm 28.4 28.8 21.7 67 4.5 NE 22 28 12 15 1014.5 1014.5 0.0
24/01:00pm 28.4 28.4 21.0 64 4.9 NE 22 28 12 15 1014.9 1014.9 0.0
24/12:30pm 28.2 28.9 21.5 67 4.5 NE 20 24 11 13 1015.2 1015.2 0.0
24/12:00pm 28.1 28.8 21.5 67 4.4 NE 20 24 11 13 1015.6 1015.6 0.0
24/11:30am 28.1 29.0 21.5 67 4.4 NNE 19 24 10 13 1016.0 1016.0 0.0
24/11:00am 28.2 29.1 21.5 67 4.5 NE 19 24 10 13 1016.3 1016.3 0.0
24/10:30am 27.7 28.5 21.7 70 4.0 NE 20 26 11 14 1016.5 1016.5 0.0
24/10:00am 26.6 27.4 21.3 72 3.5 NE 19 24 10 13 1016.8 1016.8 0.0
24/09:30am 27.9 29.2 22.3 71 3.8 NNE 19 22 10 12 1017.0 1017.0 0.0
24/09:00am 27.3 28.2 21.9 72 3.6 NE 20 24 11 13 1017.0 1017.0 0.2
24/08:30am 27.1 28.0 22.0 73 3.4 NE 20 24 11 13 1016.8 1016.8 0.2
24/08:00am 26.8 27.9 21.9 74 3.3 NE 19 24 10 13 1017.0 1017.0 0.2
24/07:30am 26.7 27.6 21.9 75 3.2 NE 20 24 11 13 1016.8 1016.8 0.2
24/07:00am 26.4 27.5 21.9 76 3.0 NE 19 22 10 12 1016.7 1016.7 0.0
24/06:30am 25.9 26.9 21.8 78 2.7 NE 19 24 10 13 1016.4 1016.4 0.0
24/06:00am 25.5 26.4 21.9 80 2.4 NE 20 24 11 13 1015.9 1015.9 0.0
24/05:30am 25.2 26.2 22.2 83 2.0 NE 20 28 11 15 1015.7 1015.7 0.0
24/05:00am 25.0 26.0 21.8 82 2.1 NNE 19 24 10 13 1015.5 1015.5 0.0
24/04:30am 25.0 25.8 21.8 82 2.1 NE 20 26 11 14 1015.3 1015.3 0.0
24/04:00am 25.1 25.6 21.9 82 2.1 NE 22 28 12 15 1015.0 1015.0 0.0
24/03:30am 24.9 24.9 21.7 82 2.1 NNE 24 30 13 16 1015.1 1015.1 0.0
24/03:00am 25.2 25.4 22.7 86 1.7 NE 26 32 14 17 1015.1 1015.1 0.0
24/02:30am 25.3 25.6 22.2 83 2.1 NE 24 30 13 16 1014.9 1014.9 0.0
24/02:00am 25.2 25.7 21.9 82 2.2 NE 22 30 12 16 1015.0 1015.0 0.0
24/01:30am 25.3 25.4 21.8 81 2.3 NE 24 28 13 15 1015.1 1015.1 0.0
24/01:00am 25.3 25.1 22.0 82 2.2 NE 26 32 14 17 1015.2 1015.2 0.0
24/12:30am 25.1 26.4 21.6 81 2.3 ENE 17 20 9 11 1015.4 1015.4 0.0
24/12:00am 25.1 26.5 21.0 78 2.7 ENE 15 20 8 11 1015.7 1015.7 0.0
 
Date/Time
EST
Temp
°C
App
Temp
°C
Dew
Point
Rel
Hum
%
Delta-T
°C
Wind Press
QNH
hPa
Press
MSL
hPa
Rain
since 9 am
mm
Dir
 
Spd
km/h
Gust
km/h
Spd
kts
Gust
kts
23/11:30pm 25.1 26.2 20.5 75 3.0 ENE 15 20 8 11 1016.2 1016.2 0.0
23/11:00pm 25.1 26.0 20.0 73 3.3 ENE 15 22 8 12 1016.5 1016.5 0.0
23/10:30pm 25.1 25.8 19.7 72 3.5 ENE 15 19 8 10 1016.7 1016.7 0.0
23/10:00pm 25.1 25.4 19.7 72 3.5 ENE 17 24 9 13 1016.7 1016.7 0.0
23/09:30pm 25.1 25.1 19.7 72 3.5 NE 19 26 10 14 1016.4 1016.4 0.0
23/09:00pm 25.2 25.2 19.8 72 3.5 ENE 19 24 10 13 1016.1 1016.1 0.0
23/08:30pm 25.5 25.8 20.4 73 3.3 NE 19 24 10 13 1015.8 1015.8 0.0
23/08:00pm 25.3 25.1 19.7 71 3.6 ENE 20 28 11 15 1015.6 1015.6 0.0
23/07:30pm 25.4 25.3 20.0 72 3.5 NE 20 26 11 14 1015.3 1015.3 0.0
23/07:00pm 25.5 24.7 19.3 68 4.0 NE 22 28 12 15 1015.0 1015.0 0.0
23/06:30pm 25.7 25.7 20.2 71 3.6 NE 20 26 11 14 1014.9 1014.9 0.0
23/06:00pm 25.9 25.5 20.2 71 3.7 NE 22 28 12 15 1014.5 1014.5 0.0
23/05:30pm 26.2 25.2 19.7 67 4.2 ENE 24 30 13 16 1014.4 1014.4 0.0
23/05:00pm 26.4 25.8 19.8 67 4.3 ENE 22 30 12 16 1014.2 1014.2 0.0
23/04:30pm 26.7 26.4 19.6 65 4.6 ENE 20 28 11 15 1014.3 1014.3 0.0
23/04:00pm 27.0 26.8 19.8 64 4.7 ENE 20 24 11 13 1014.4 1014.4 0.0
23/03:30pm 27.0 26.1 19.8 64 4.7 ENE 24 30 13 16 1014.6 1014.6 0.0
23/03:00pm 27.2 27.2 20.2 65 4.6 ENE 20 28 11 15 1014.6 1014.6 0.0
23/02:30pm 27.5 27.7 20.5 65 4.6 ENE 20 28 11 15 1015.0 1015.0 0.0
23/02:00pm 27.7 27.8 20.0 63 5.0 ENE 19 26 10 14 1015.2 1015.2 0.0
23/01:30pm 27.6 27.9 20.4 65 4.7 ENE 19 26 10 14 1015.4 1015.4 0.0
23/01:00pm 27.8 28.1 20.8 65 4.6 ENE 20 24 11 13 1015.9 1015.9 0.0
23/12:30pm 27.7 28.2 21.1 67 4.4 NE 20 26 11 14 1016.2 1016.2 0.0
23/12:00pm 27.8 28.2 21.0 66 4.5 ENE 20 24 11 13 1016.6 1016.6 0.0
23/11:30am 27.9 28.4 21.1 66 4.5 ENE 20 24 11 13 1016.9 1016.9 0.0
23/11:00am 28.2 29.2 21.0 65 4.8 ENE 17 22 9 12 1017.3 1017.3 0.0
23/10:30am 28.4 29.9 21.2 65 4.8 ENE 15 22 8 12 1017.5 1017.5 0.0
23/10:00am 28.3 29.6 21.7 67 4.4 NE 17 22 9 12 1017.6 1017.6 0.0
23/09:30am 28.0 29.2 21.4 67 4.4 NE 17 20 9 11 1017.6 1017.6 0.0
23/09:00am 27.6 29.2 21.4 69 4.1 NE 15 19 8 10 1017.5 1017.5 0.0
23/08:30am 27.4 29.7 22.0 72 3.6 NE 13 17 7 9 1017.4 1017.4 0.0
23/08:00am 26.7 29.8 22.1 76 3.1 NNE 9 13 5 7 1017.3 1017.3 0.0
23/07:30am 25.9 28.4 21.8 78 2.7 N 11 13 6 7 1017.1 1017.1 0.0
23/07:00am 25.9 28.9 22.0 79 2.6 N 9 13 5 7 1016.8 1016.8 0.0
23/06:30am 24.7 29.3 21.8 84 1.9 CALM 0 0 0 0 1016.2 1016.2 0.0
23/06:00am 24.0 28.6 21.7 87 1.5 CALM 0 0 0 0 1016.0 1016.0 0.0
23/05:30am 24.0 28.5 21.6 86 1.6 CALM 0 2 0 1 1015.6 1015.6 0.0
23/05:00am 24.0 26.3 21.4 85 1.7 N 11 13 6 7 1015.2 1015.2 0.0
23/04:30am 23.9 26.2 21.3 85 1.7 N 11 13 6 7 1014.9 1014.9 0.0
23/04:00am 24.3 26.6 21.4 84 1.9 N 11 15 6 8 1014.7 1014.7 0.0
23/03:30am 24.7 26.3 21.4 82 2.2 N 15 19 8 10 1014.6 1014.6 0.0
23/03:00am 25.4 25.9 22.0 81 2.3 NNE 22 24 12 13 1014.6 1014.6 0.0
23/02:30am 25.4 25.8 21.8 80 2.4 NNE 22 26 12 14 1014.7 1014.7 0.0
23/02:00am 25.4 25.6 22.0 81 2.3 NNE 24 28 13 15 1014.7 1014.7 0.0
23/01:30am 25.5 25.9 22.5 83 2.0 NNE 24 28 13 15 1014.5 1014.5 0.0
23/01:00am 25.6 27.0 22.6 83 2.0 N 19 28 10 15 1014.7 1014.7 0.0
23/12:30am 25.8 26.2 22.5 82 2.2 NNE 24 28 13 15 1015.0 1015.0 0.0
23/12:00am 25.8 25.9 22.5 82 2.2 NNE 26 30 14 16 1015.3 1015.3 0.0
 
Date/Time
EST
Temp
°C
App
Temp
°C
Dew
Point
Rel
Hum
%
Delta-T
°C
Wind Press
QNH
hPa
Press
MSL
hPa
Rain
since 9 am
mm
Dir
 
Spd
km/h
Gust
km/h
Spd
kts
Gust
kts
22/11:30pm 25.9 26.6 22.9 83 2.0 NNE 24 28 13 15 1015.7 1015.7 0.0
22/11:00pm 26.0 25.9 22.9 83 2.1 NNE 28 32 15 17 1015.4 1015.4 0.0
22/10:30pm 26.1 26.3 23.5 85 1.8 N 28 32 15 17 1015.5 1015.5 0.0
22/10:00pm 26.2 26.4 23.4 84 1.9 NNE 28 33 15 18 1015.5 1015.5 0.0
22/09:30pm 26.3 26.5 23.5 84 1.9 NNE 28 33 15 18 1015.2 1015.2 0.0
22/09:00pm 26.1 25.8 23.3 84 1.9 NNE 30 33 16 18 1015.1 1015.1 0.0
22/08:30pm 26.2 26.6 23.7 86 1.7 NNE 28 32 15 17 1014.8 1014.8 0.0
22/08:00pm 26.3 26.5 23.4 84 2.0 NNE 28 32 15 17 1014.5 1014.5 0.0
22/07:30pm 26.4 26.1 23.2 82 2.2 N 30 35 16 19 1014.3 1014.3 0.0
22/07:00pm 26.4 26.3 23.5 84 2.0 NNE 30 33 16 18 1013.8 1013.8 0.0
22/06:30pm 26.5 26.6 23.3 82 2.2 NNE 28 33 15 18 1013.6 1013.6 0.0
22/06:00pm 26.5 26.1 23.1 81 2.3 NNE 30 35 16 19 1013.4 1013.4 0.0
22/05:30pm 26.8 26.2 23.3 81 2.4 NNE 32 37 17 20 1012.9 1012.9 0.0
22/05:00pm 26.9 26.3 23.4 81 2.4 NNE 32 35 17 19 1012.4 1012.4 0.0
22/04:30pm 27.1 27.1 23.8 82 2.3 NNE 30 35 16 19 1012.3 1012.3 0.0
22/04:00pm 27.4 27.7 23.6 80 2.6 NNE 28 35 15 19 1012.3 1012.3 0.0
22/03:30pm 27.8 28.1 23.6 78 2.9 NNE 28 33 15 18 1012.3 1012.3 0.0
22/03:00pm 28.0 27.5 23.6 77 3.0 NNE 32 37 17 20 1012.7 1012.7 0.0
22/02:30pm 28.0 28.4 23.8 78 2.9 NNE 28 33 15 18 1012.9 1012.9 0.0
22/02:00pm 28.1 29.3 23.9 78 2.9 NNE 24 32 13 17 1013.3 1013.3 0.0
22/01:30pm 28.3 29.0 23.6 75 3.2 NNE 26 32 14 17 1013.7 1013.7 0.0
22/01:00pm 28.0 29.1 23.6 77 3.0 NE 24 30 13 16 1014.1 1014.1 0.0
22/12:30pm 28.0 29.4 23.6 77 3.0 NE 22 28 12 15 1014.5 1014.5 0.0
22/12:00pm 27.9 29.7 23.5 77 3.0 NE 20 26 11 14 1015.0 1015.0 0.0
22/11:30am 27.8 29.7 23.4 77 3.0 NE 19 22 10 12 1015.2 1015.2 0.0
22/11:00am 28.2 30.4 23.2 74 3.4 NE 17 20 9 11 1015.5 1015.5 0.0
22/10:30am 27.6 29.9 23.5 78 2.8 NNE 17 20 9 11 1015.8 1015.8 0.0

Other Formats:

Comma delimited format used in spreadsheet applications
http://www.bom.gov.au/fwo/IDQ60801/IDQ60801.94373.axf

JavaScript Object Notation format (JSON) in row-major order
http://www.bom.gov.au/fwo/IDQ60801/IDQ60801.94373.json